Terminal Aerodrome Forecast
Issued by NWS Boston, MA

Home | Current Version | Previous Version | Text Only | Print | Product List | Glossary On
Versions: 1 2 3 4 5 6 7 8 9 10 11 12 13 14 15 16 17 18 19 20 21 22 23 24
000
FTUS41 KBOX 241539 AAA
TAFBOS
TAF AMD
KBOS 241539Z 2416/2518 24007KT P6SM FEW250
     FM242000 19007KT P6SM SKC
     FM250100 20005KT P6SM SKC
     FM251600 21009KT P6SM FEW200=

USA.gov is the U.S. government's official web portal to all federal, state and local government web resources and services.